sensor_id;sensor_type;location;lat;lon;timestamp;temperature;humidity
25753;DHT22;13600;50.816;4.416;2023-09-12T00:01:41;23.90;99.90
25753;DHT22;13600;50.816;4.416;2023-09-12T00:04:07;23.90;99.90
25753;DHT22;13600;50.816;4.416;2023-09-12T00:06:32;23.90;99.90
25753;DHT22;13600;50.816;4.416;2023-09-12T00:08:58;23.90;99.90
25753;DHT22;13600;50.816;4.416;2023-09-12T00:11:23;23.90;99.90
25753;DHT22;13600;50.816;4.416;2023-09-12T00:13:51;24.00;99.90
25753;DHT22;13600;50.816;4.416;2023-09-12T00:16:17;24.00;99.90
25753;DHT22;13600;50.816;4.416;2023-09-12T00:18:43;23.90;99.90
25753;DHT22;13600;50.816;4.416;2023-09-12T00:21:08;23.80;99.90
25753;DHT22;13600;50.816;4.416;2023-09-12T00:23:34;23.60;99.90
25753;DHT22;13600;50.816;4.416;2023-09-12T00:26:00;23.50;99.90
25753;DHT22;13600;50.816;4.416;2023-09-12T00:28:26;23.50;99.90
25753;DHT22;13600;50.816;4.416;2023-09-12T00:30:52;23.70;99.90
25753;DHT22;13600;50.816;4.416;2023-09-12T00:33:18;23.90;99.90
25753;DHT22;13600;50.816;4.416;2023-09-12T00:35:44;23.80;99.90
25753;DHT22;13600;50.816;4.416;2023-09-12T00:38:10;23.80;99.90
25753;DHT22;13600;50.816;4.416;2023-09-12T00:40:36;23.70;99.90
25753;DHT22;13600;50.816;4.416;2023-09-12T00:43:03;23.50;99.90
25753;DHT22;13600;50.816;4.416;2023-09-12T00:45:29;23.50;99.90
25753;DHT22;13600;50.816;4.416;2023-09-12T00:47:56;23.70;99.90
25753;DHT22;13600;50.816;4.416;2023-09-12T00:50:23;23.60;99.90
25753;DHT22;13600;50.816;4.416;2023-09-12T00:52:49;23.50;99.90
25753;DHT22;13600;50.816;4.416;2023-09-12T00:55:15;23.40;99.90
25753;DHT22;13600;50.816;4.416;2023-09-12T00:57:42;23.40;99.90
25753;DHT22;13600;50.816;4.416;2023-09-12T01:00:11;23.50;99.90
25753;DHT22;13600;50.816;4.416;2023-09-12T01:02:46;23.50;99.90
25753;DHT22;13600;50.816;4.416;2023-09-12T01:05:13;23.40;99.90
25753;DHT22;13600;50.816;4.416;2023-09-12T01:07:41;23.40;99.90
25753;DHT22;13600;50.816;4.416;2023-09-12T01:10:09;23.40;99.90
25753;DHT22;13600;50.816;4.416;2023-09-12T01:12:36;23.50;99.90
25753;DHT22;13600;50.816;4.416;2023-09-12T01:15:01;23.40;99.90
25753;DHT22;13600;50.816;4.416;2023-09-12T01:17:31;23.30;99.90
25753;DHT22;13600;50.816;4.416;2023-09-12T01:19:57;23.10;99.90
25753;DHT22;13600;50.816;4.416;2023-09-12T01:28:23;23.10;99.90
25753;DHT22;13600;50.816;4.416;2023-09-12T01:30:50;23.00;99.90
25753;DHT22;13600;50.816;4.416;2023-09-12T01:33:18;22.90;99.90
25753;DHT22;13600;50.816;4.416;2023-09-12T01:35:44;22.80;99.90
25753;DHT22;13600;50.816;4.416;2023-09-12T01:38:12;22.90;99.90
25753;DHT22;13600;50.816;4.416;2023-09-12T01:40:44;22.90;99.90
25753;DHT22;13600;50.816;4.416;2023-09-12T01:43:11;23.00;99.90
25753;DHT22;13600;50.816;4.416;2023-09-12T01:45:38;23.10;99.90
25753;DHT22;13600;50.816;4.416;2023-09-12T01:48:05;23.20;99.90
25753;DHT22;13600;50.816;4.416;2023-09-12T01:50:33;23.10;99.90
25753;DHT22;13600;50.816;4.416;2023-09-12T01:52:59;23.00;99.90
25753;DHT22;13600;50.816;4.416;2023-09-12T01:55:25;23.00;99.90
25753;DHT22;13600;50.816;4.416;2023-09-12T01:57:51;23.00;99.90
25753;DHT22;13600;50.816;4.416;2023-09-12T02:00:20;23.00;99.90
25753;DHT22;13600;50.816;4.416;2023-09-12T02:02:48;23.10;99.90
25753;DHT22;13600;50.816;4.416;2023-09-12T02:05:19;23.10;99.90
25753;DHT22;13600;50.816;4.416;2023-09-12T02:07:46;22.90;99.90
25753;DHT22;13600;50.816;4.416;2023-09-12T02:10:12;22.90;99.90
25753;DHT22;13600;50.816;4.416;2023-09-12T02:12:38;22.90;99.90
25753;DHT22;13600;50.816;4.416;2023-09-12T02:15:04;22.90;99.90
25753;DHT22;13600;50.816;4.416;2023-09-12T02:17:30;22.80;99.90
25753;DHT22;13600;50.816;4.416;2023-09-12T02:19:56;22.80;99.90
25753;DHT22;13600;50.816;4.416;2023-09-12T02:22:22;22.90;99.90
25753;DHT22;13600;50.816;4.416;2023-09-12T02:24:48;22.80;99.90
25753;DHT22;13600;50.816;4.416;2023-09-12T02:27:13;22.80;99.90
25753;DHT22;13600;50.816;4.416;2023-09-12T02:29:40;22.80;99.90
25753;DHT22;13600;50.816;4.416;2023-09-12T02:32:06;22.90;99.90
25753;DHT22;13600;50.816;4.416;2023-09-12T02:34:32;22.90;99.90
25753;DHT22;13600;50.816;4.416;2023-09-12T02:36:58;22.80;99.90
25753;DHT22;13600;50.816;4.416;2023-09-12T02:39:24;22.90;99.90
25753;DHT22;13600;50.816;4.416;2023-09-12T02:41:50;22.90;99.90
25753;DHT22;13600;50.816;4.416;2023-09-12T02:44:15;23.00;99.90
25753;DHT22;13600;50.816;4.416;2023-09-12T02:46:41;23.00;99.90
25753;DHT22;13600;50.816;4.416;2023-09-12T02:49:07;23.00;99.90
25753;DHT22;13600;50.816;4.416;2023-09-12T02:51:33;23.00;99.90
25753;DHT22;13600;50.816;4.416;2023-09-12T02:53:58;23.00;99.90
25753;DHT22;13600;50.816;4.416;2023-09-12T02:56:24;23.00;99.90
25753;DHT22;13600;50.816;4.416;2023-09-12T02:58:50;23.00;99.90
25753;DHT22;13600;50.816;4.416;2023-09-12T03:01:16;23.00;99.90
25753;DHT22;13600;50.816;4.416;2023-09-12T03:03:42;22.90;99.90
25753;DHT22;13600;50.816;4.416;2023-09-12T03:06:12;23.00;99.90
25753;DHT22;13600;50.816;4.416;2023-09-12T03:08:40;23.00;99.90
25753;DHT22;13600;50.816;4.416;2023-09-12T03:11:05;23.10;99.90
25753;DHT22;13600;50.816;4.416;2023-09-12T03:13:33;23.00;99.90
25753;DHT22;13600;50.816;4.416;2023-09-12T03:15:59;23.00;99.90
25753;DHT22;13600;50.816;4.416;2023-09-12T03:18:25;23.10;99.90
25753;DHT22;13600;50.816;4.416;2023-09-12T03:20:51;23.00;99.90
25753;DHT22;13600;50.816;4.416;2023-09-12T03:23:16;23.10;99.90
25753;DHT22;13600;50.816;4.416;2023-09-12T03:25:42;23.00;99.90
25753;DHT22;13600;50.816;4.416;2023-09-12T03:28:08;23.00;99.90
25753;DHT22;13600;50.816;4.416;2023-09-12T03:30:35;22.90;99.90
25753;DHT22;13600;50.816;4.416;2023-09-12T03:33:02;22.90;99.90
25753;DHT22;13600;50.816;4.416;2023-09-12T03:35:31;23.00;99.90
25753;DHT22;13600;50.816;4.416;2023-09-12T03:37:57;23.10;99.90
25753;DHT22;13600;50.816;4.416;2023-09-12T03:40:23;23.10;99.90
25753;DHT22;13600;50.816;4.416;2023-09-12T03:42:50;23.00;99.90
25753;DHT22;13600;50.816;4.416;2023-09-12T03:45:16;23.00;99.90
25753;DHT22;13600;50.816;4.416;2023-09-12T03:47:41;23.00;99.90
25753;DHT22;13600;50.816;4.416;2023-09-12T03:50:09;23.10;99.90
25753;DHT22;13600;50.816;4.416;2023-09-12T03:52:34;23.10;99.90
25753;DHT22;13600;50.816;4.416;2023-09-12T03:55:00;23.20;99.90
25753;DHT22;13600;50.816;4.416;2023-09-12T03:57:28;23.20;99.90
25753;DHT22;13600;50.816;4.416;2023-09-12T03:59:54;23.10;99.90
25753;DHT22;13600;50.816;4.416;2023-09-12T04:02:20;23.00;99.90
25753;DHT22;13600;50.816;4.416;2023-09-12T04:04:45;22.90;99.90
25753;DHT22;13600;50.816;4.416;2023-09-12T04:07:11;23.00;99.90
25753;DHT22;13600;50.816;4.416;2023-09-12T04:09:37;23.10;99.90
25753;DHT22;13600;50.816;4.416;2023-09-12T04:12:03;23.10;99.90
25753;DHT22;13600;50.816;4.416;2023-09-12T04:14:28;23.10;99.90
25753;DHT22;13600;50.816;4.416;2023-09-12T04:16:54;23.10;99.90
25753;DHT22;13600;50.816;4.416;2023-09-12T04:19:20;23.10;99.90
25753;DHT22;13600;50.816;4.416;2023-09-12T04:21:47;23.00;99.90
25753;DHT22;13600;50.816;4.416;2023-09-12T04:24:14;23.10;99.90
25753;DHT22;13600;50.816;4.416;2023-09-12T04:26:42;23.10;99.90
25753;DHT22;13600;50.816;4.416;2023-09-12T04:29:09;23.10;99.90
25753;DHT22;13600;50.816;4.416;2023-09-12T04:31:35;23.00;99.90
25753;DHT22;13600;50.816;4.416;2023-09-12T04:34:01;22.90;99.90
25753;DHT22;13600;50.816;4.416;2023-09-12T04:36:26;22.90;99.90
25753;DHT22;13600;50.816;4.416;2023-09-12T04:38:52;22.90;99.90
25753;DHT22;13600;50.816;4.416;2023-09-12T04:41:19;22.90;99.90
25753;DHT22;13600;50.816;4.416;2023-09-12T04:43:45;22.80;99.90
25753;DHT22;13600;50.816;4.416;2023-09-12T04:46:11;22.80;99.90
25753;DHT22;13600;50.816;4.416;2023-09-12T04:48:38;22.80;99.90
25753;DHT22;13600;50.816;4.416;2023-09-12T04:51:05;22.70;99.90
25753;DHT22;13600;50.816;4.416;2023-09-12T04:53:32;22.70;99.90
25753;DHT22;13600;50.816;4.416;2023-09-12T04:56:02;22.70;99.90
25753;DHT22;13600;50.816;4.416;2023-09-12T04:58:29;22.60;99.90
25753;DHT22;13600;50.816;4.416;2023-09-12T05:00:55;22.50;99.90
25753;DHT22;13600;50.816;4.416;2023-09-12T05:03:22;22.50;99.90
25753;DHT22;13600;50.816;4.416;2023-09-12T05:05:49;22.40;99.90
25753;DHT22;13600;50.816;4.416;2023-09-12T05:08:15;22.40;99.90
25753;DHT22;13600;50.816;4.416;2023-09-12T05:10:43;22.40;99.90
25753;DHT22;13600;50.816;4.416;2023-09-12T05:13:09;22.40;99.90
25753;DHT22;13600;50.816;4.416;2023-09-12T05:15:34;22.50;99.90
25753;DHT22;13600;50.816;4.416;2023-09-12T05:18:02;22.40;99.90
25753;DHT22;13600;50.816;4.416;2023-09-12T05:20:29;22.40;99.90
25753;DHT22;13600;50.816;4.416;2023-09-12T05:22:55;22.40;99.90
25753;DHT22;13600;50.816;4.416;2023-09-12T05:25:21;22.30;99.90
25753;DHT22;13600;50.816;4.416;2023-09-12T05:27:47;22.40;99.90
25753;DHT22;13600;50.816;4.416;2023-09-12T05:30:13;22.30;99.90
25753;DHT22;13600;50.816;4.416;2023-09-12T05:32:41;22.30;99.90
25753;DHT22;13600;50.816;4.416;2023-09-12T05:35:07;22.20;99.90
25753;DHT22;13600;50.816;4.416;2023-09-12T05:37:33;22.20;99.90
25753;DHT22;13600;50.816;4.416;2023-09-12T05:39:59;22.20;99.90
25753;DHT22;13600;50.816;4.416;2023-09-12T05:42:25;22.10;99.90
25753;DHT22;13600;50.816;4.416;2023-09-12T05:44:52;22.10;99.90
25753;DHT22;13600;50.816;4.416;2023-09-12T05:47:22;22.10;99.90
25753;DHT22;13600;50.816;4.416;2023-09-12T05:49:48;22.30;99.90
25753;DHT22;13600;50.816;4.416;2023-09-12T05:52:14;22.40;99.90
25753;DHT22;13600;50.816;4.416;2023-09-12T05:54:40;22.50;99.90
25753;DHT22;13600;50.816;4.416;2023-09-12T05:57:09;22.30;99.90
25753;DHT22;13600;50.816;4.416;2023-09-12T05:59:38;22.20;99.90
25753;DHT22;13600;50.816;4.416;2023-09-12T06:02:06;22.30;99.90
25753;DHT22;13600;50.816;4.416;2023-09-12T06:04:33;22.40;99.90
25753;DHT22;13600;50.816;4.416;2023-09-12T06:06:59;22.40;99.90
25753;DHT22;13600;50.816;4.416;2023-09-12T06:09:25;22.40;99.90
25753;DHT22;13600;50.816;4.416;2023-09-12T06:11:50;22.50;99.90
25753;DHT22;13600;50.816;4.416;2023-09-12T06:14:16;22.60;99.90
25753;DHT22;13600;50.816;4.416;2023-09-12T06:16:42;22.60;99.90
25753;DHT22;13600;50.816;4.416;2023-09-12T06:19:07;22.60;99.90
25753;DHT22;13600;50.816;4.416;2023-09-12T06:21:33;22.60;99.90
25753;DHT22;13600;50.816;4.416;2023-09-12T06:24:16;22.70;99.90
25753;DHT22;13600;50.816;4.416;2023-09-12T06:26:43;22.80;99.90
25753;DHT22;13600;50.816;4.416;2023-09-12T06:29:08;22.70;99.90
25753;DHT22;13600;50.816;4.416;2023-09-12T06:31:34;22.70;99.90
25753;DHT22;13600;50.816;4.416;2023-09-12T06:34:01;22.70;99.90
25753;DHT22;13600;50.816;4.416;2023-09-12T06:36:27;22.90;99.90
25753;DHT22;13600;50.816;4.416;2023-09-12T06:38:56;23.10;99.90
25753;DHT22;13600;50.816;4.416;2023-09-12T06:41:22;23.50;99.90
25753;DHT22;13600;50.816;4.416;2023-09-12T06:43:47;24.00;99.90
25753;DHT22;13600;50.816;4.416;2023-09-12T06:46:14;24.60;99.90
25753;DHT22;13600;50.816;4.416;2023-09-12T06:48:39;25.10;99.90
25753;DHT22;13600;50.816;4.416;2023-09-12T06:51:09;25.40;99.90
25753;DHT22;13600;50.816;4.416;2023-09-12T06:53:36;25.50;99.90
25753;DHT22;13600;50.816;4.416;2023-09-12T06:56:05;25.80;99.90
25753;DHT22;13600;50.816;4.416;2023-09-12T06:58:31;25.60;99.90
25753;DHT22;13600;50.816;4.416;2023-09-12T07:01:02;25.60;99.90
25753;DHT22;13600;50.816;4.416;2023-09-12T07:03:28;25.70;99.90
25753;DHT22;13600;50.816;4.416;2023-09-12T07:05:54;25.90;99.90
25753;DHT22;13600;50.816;4.416;2023-09-12T07:08:19;25.90;99.90
25753;DHT22;13600;50.816;4.416;2023-09-12T07:10:45;25.70;99.90
25753;DHT22;13600;50.816;4.416;2023-09-12T07:13:11;25.50;99.90
25753;DHT22;13600;50.816;4.416;2023-09-12T07:15:37;25.30;99.90
25753;DHT22;13600;50.816;4.416;2023-09-12T07:18:03;25.10;99.90
25753;DHT22;13600;50.816;4.416;2023-09-12T07:20:29;25.00;99.90
25753;DHT22;13600;50.816;4.416;2023-09-12T07:22:55;25.00;99.90
25753;DHT22;13600;50.816;4.416;2023-09-12T07:25:21;25.00;99.90
25753;DHT22;13600;50.816;4.416;2023-09-12T07:27:49;25.20;99.90
25753;DHT22;13600;50.816;4.416;2023-09-12T07:30:15;25.60;99.90
25753;DHT22;13600;50.816;4.416;2023-09-12T07:32:42;25.90;99.90
25753;DHT22;13600;50.816;4.416;2023-09-12T07:35:08;26.00;99.90
25753;DHT22;13600;50.816;4.416;2023-09-12T07:37:33;26.10;99.90
25753;DHT22;13600;50.816;4.416;2023-09-12T07:39:59;26.30;99.90
25753;DHT22;13600;50.816;4.416;2023-09-12T07:42:28;26.20;99.90
25753;DHT22;13600;50.816;4.416;2023-09-12T07:44:53;26.30;99.90
25753;DHT22;13600;50.816;4.416;2023-09-12T07:47:19;26.40;99.90
25753;DHT22;13600;50.816;4.416;2023-09-12T07:49:44;26.60;99.90
25753;DHT22;13600;50.816;4.416;2023-09-12T07:52:10;26.60;99.90
25753;DHT22;13600;50.816;4.416;2023-09-12T07:54:36;26.80;99.90
25753;DHT22;13600;50.816;4.416;2023-09-12T07:57:02;26.80;99.90
25753;DHT22;13600;50.816;4.416;2023-09-12T07:59:28;26.90;99.90
25753;DHT22;13600;50.816;4.416;2023-09-12T08:01:54;26.90;99.90
25753;DHT22;13600;50.816;4.416;2023-09-12T08:04:19;26.80;99.90
25753;DHT22;13600;50.816;4.416;2023-09-12T08:06:45;26.60;99.90
25753;DHT22;13600;50.816;4.416;2023-09-12T08:09:11;26.60;99.90
25753;DHT22;13600;50.816;4.416;2023-09-12T08:11:36;26.60;99.90
25753;DHT22;13600;50.816;4.416;2023-09-12T08:14:03;26.60;99.90
25753;DHT22;13600;50.816;4.416;2023-09-12T08:16:30;26.60;99.90
25753;DHT22;13600;50.816;4.416;2023-09-12T08:18:57;26.80;99.90
25753;DHT22;13600;50.816;4.416;2023-09-12T08:21:23;26.90;99.90
25753;DHT22;13600;50.816;4.416;2023-09-12T08:23:50;26.80;99.90
25753;DHT22;13600;50.816;4.416;2023-09-12T08:26:15;26.90;99.90
25753;DHT22;13600;50.816;4.416;2023-09-12T08:28:42;26.70;99.90
25753;DHT22;13600;50.816;4.416;2023-09-12T08:31:08;26.60;99.90
25753;DHT22;13600;50.816;4.416;2023-09-12T08:33:33;26.80;99.90
25753;DHT22;13600;50.816;4.416;2023-09-12T08:35:59;26.80;99.90
25753;DHT22;13600;50.816;4.416;2023-09-12T08:38:25;27.10;99.90
25753;DHT22;13600;50.816;4.416;2023-09-12T08:40:51;27.50;99.90
25753;DHT22;13600;50.816;4.416;2023-09-12T08:43:18;28.00;99.90
25753;DHT22;13600;50.816;4.416;2023-09-12T08:45:44;28.10;99.90
25753;DHT22;13600;50.816;4.416;2023-09-12T08:48:11;28.10;99.90
25753;DHT22;13600;50.816;4.416;2023-09-12T08:50:38;28.30;99.90
25753;DHT22;13600;50.816;4.416;2023-09-12T08:53:04;28.30;99.90
25753;DHT22;13600;50.816;4.416;2023-09-12T08:55:31;28.20;99.90
25753;DHT22;13600;50.816;4.416;2023-09-12T08:57:59;28.30;99.90
25753;DHT22;13600;50.816;4.416;2023-09-12T09:00:25;28.40;99.90
25753;DHT22;13600;50.816;4.416;2023-09-12T09:02:52;29.30;99.90
25753;DHT22;13600;50.816;4.416;2023-09-12T09:05:20;30.70;99.90
25753;DHT22;13600;50.816;4.416;2023-09-12T09:07:51;32.60;99.90
25753;DHT22;13600;50.816;4.416;2023-09-12T09:10:18;35.10;99.90
25753;DHT22;13600;50.816;4.416;2023-09-12T09:12:45;37.20;95.20
25753;DHT22;13600;50.816;4.416;2023-09-12T09:17:47;38.10;87.10
25753;DHT22;13600;50.816;4.416;2023-09-12T09:20:34;36.50;87.50
25753;DHT22;13600;50.816;4.416;2023-09-12T09:23:08;36.50;89.20
25753;DHT22;13600;50.816;4.416;2023-09-12T09:25:42;37.50;85.10
25753;DHT22;13600;50.816;4.416;2023-09-12T09:28:18;38.40;82.80
25753;DHT22;13600;50.816;4.416;2023-09-12T09:30:46;37.50;81.30
25753;DHT22;13600;50.816;4.416;2023-09-12T09:33:13;37.50;80.00
25753;DHT22;13600;50.816;4.416;2023-09-12T09:35:48;36.80;81.50
25753;DHT22;13600;50.816;4.416;2023-09-12T09:38:15;37.90;79.80
25753;DHT22;13600;50.816;4.416;2023-09-12T09:40:44;39.00;78.60
25753;DHT22;13600;50.816;4.416;2023-09-12T09:43:10;39.90;75.30
25753;DHT22;13600;50.816;4.416;2023-09-12T09:45:45;41.10;72.50
25753;DHT22;13600;50.816;4.416;2023-09-12T09:48:18;42.20;70.30
25753;DHT22;13600;50.816;4.416;2023-09-12T09:50:44;43.40;66.10
25753;DHT22;13600;50.816;4.416;2023-09-12T09:53:09;44.40;62.80
25753;DHT22;13600;50.816;4.416;2023-09-12T09:55:36;44.10;61.20
25753;DHT22;13600;50.816;4.416;2023-09-12T09:58:15;42.50;62.10
25753;DHT22;13600;50.816;4.416;2023-09-12T10:00:45;41.40;64.00
25753;DHT22;13600;50.816;4.416;2023-09-12T10:03:14;40.00;65.80
25753;DHT22;13600;50.816;4.416;2023-09-12T10:05:44;38.60;67.90
25753;DHT22;13600;50.816;4.416;2023-09-12T10:08:11;37.00;71.30
25753;DHT22;13600;50.816;4.416;2023-09-12T10:10:42;35.60;74.90
25753;DHT22;13600;50.816;4.416;2023-09-12T10:13:09;35.40;76.90
25753;DHT22;13600;50.816;4.416;2023-09-12T10:15:37;35.10;77.80
25753;DHT22;13600;50.816;4.416;2023-09-12T10:18:08;34.50;77.30
25753;DHT22;13600;50.816;4.416;2023-09-12T10:20:37;33.70;81.20
25753;DHT22;13600;50.816;4.416;2023-09-12T10:23:08;33.00;83.10
25753;DHT22;13600;50.816;4.416;2023-09-12T10:25:38;33.00;84.70
25753;DHT22;13600;50.816;4.416;2023-09-12T10:28:05;34.40;81.60
25753;DHT22;13600;50.816;4.416;2023-09-12T10:30:33;34.40;81.80
25753;DHT22;13600;50.816;4.416;2023-09-12T10:33:02;33.70;82.10
25753;DHT22;13600;50.816;4.416;2023-09-12T10:35:30;33.30;84.70
25753;DHT22;13600;50.816;4.416;2023-09-12T10:38:00;33.30;85.30
25753;DHT22;13600;50.816;4.416;2023-09-12T10:40:36;33.30;85.70
25753;DHT22;13600;50.816;4.416;2023-09-12T10:43:03;35.00;83.60
25753;DHT22;13600;50.816;4.416;2023-09-12T10:45:31;37.20;78.30
25753;DHT22;13600;50.816;4.416;2023-09-12T10:47:59;39.60;72.20
25753;DHT22;13600;50.816;4.416;2023-09-12T10:50:25;41.00;68.30
25753;DHT22;13600;50.816;4.416;2023-09-12T10:52:51;43.00;64.60
25753;DHT22;13600;50.816;4.416;2023-09-12T10:55:17;43.40;63.20
25753;DHT22;13600;50.816;4.416;2023-09-12T10:58:16;44.50;60.30
25753;DHT22;13600;50.816;4.416;2023-09-12T11:00:41;45.00;58.30
25753;DHT22;13600;50.816;4.416;2023-09-12T11:05:53;46.60;55.80
25753;DHT22;13600;50.816;4.416;2023-09-12T11:08:20;46.70;54.10
25753;DHT22;13600;50.816;4.416;2023-09-12T11:11:18;46.90;53.10
25753;DHT22;13600;50.816;4.416;2023-09-12T11:14:02;45.80;53.30
25753;DHT22;13600;50.816;4.416;2023-09-12T11:16:28;45.80;53.10
25753;DHT22;13600;50.816;4.416;2023-09-12T11:19:22;44.60;54.00
25753;DHT22;13600;50.816;4.416;2023-09-12T11:21:53;44.30;54.90
25753;DHT22;13600;50.816;4.416;2023-09-12T11:24:21;44.40;55.10
25753;DHT22;13600;50.816;4.416;2023-09-12T11:27:01;44.70;54.80
25753;DHT22;13600;50.816;4.416;2023-09-12T11:29:45;44.50;55.00
25753;DHT22;13600;50.816;4.416;2023-09-12T11:32:25;44.00;54.10
25753;DHT22;13600;50.816;4.416;2023-09-12T11:34:51;43.90;55.10
25753;DHT22;13600;50.816;4.416;2023-09-12T11:37:27;44.10;54.60
25753;DHT22;13600;50.816;4.416;2023-09-12T11:39:54;42.90;56.00
25753;DHT22;13600;50.816;4.416;2023-09-12T11:42:19;43.20;55.70
25753;DHT22;13600;50.816;4.416;2023-09-12T11:44:49;44.10;55.00
25753;DHT22;13600;50.816;4.416;2023-09-12T11:47:16;45.20;53.90
25753;DHT22;13600;50.816;4.416;2023-09-12T11:49:42;45.70;52.40
25753;DHT22;13600;50.816;4.416;2023-09-12T11:52:12;46.40;51.70
25753;DHT22;13600;50.816;4.416;2023-09-12T11:54:40;44.10;51.60
25753;DHT22;13600;50.816;4.416;2023-09-12T11:57:17;41.80;54.50
25753;DHT22;13600;50.816;4.416;2023-09-12T11:59:46;39.60;56.50
25753;DHT22;13600;50.816;4.416;2023-09-12T12:02:14;37.90;59.50
25753;DHT22;13600;50.816;4.416;2023-09-12T12:04:40;36.80;62.40
25753;DHT22;13600;50.816;4.416;2023-09-12T12:07:06;38.20;62.10
25753;DHT22;13600;50.816;4.416;2023-09-12T12:09:33;40.40;58.70
25753;DHT22;13600;50.816;4.416;2023-09-12T12:12:13;42.80;55.10
25753;DHT22;13600;50.816;4.416;2023-09-12T12:14:40;43.90;54.60
25753;DHT22;13600;50.816;4.416;2023-09-12T12:17:08;45.70;52.60
25753;DHT22;13600;50.816;4.416;2023-09-12T12:19:34;46.30;51.30
25753;DHT22;13600;50.816;4.416;2023-09-12T12:22:02;47.00;51.00
25753;DHT22;13600;50.816;4.416;2023-09-12T12:24:37;46.30;50.40
25753;DHT22;13600;50.816;4.416;2023-09-12T12:27:04;46.10;50.40
25753;DHT22;13600;50.816;4.416;2023-09-12T12:29:30;45.70;50.70
25753;DHT22;13600;50.816;4.416;2023-09-12T12:32:05;44.80;51.60
25753;DHT22;13600;50.816;4.416;2023-09-12T12:34:31;45.20;52.20
25753;DHT22;13600;50.816;4.416;2023-09-12T12:36:57;44.60;51.30
25753;DHT22;13600;50.816;4.416;2023-09-12T12:39:23;43.40;52.80
25753;DHT22;13600;50.816;4.416;2023-09-12T12:41:52;41.90;53.70
25753;DHT22;13600;50.816;4.416;2023-09-12T12:44:18;40.10;55.80
25753;DHT22;13600;50.816;4.416;2023-09-12T12:46:54;38.70;58.30
25753;DHT22;13600;50.816;4.416;2023-09-12T12:49:20;37.50;59.90
25753;DHT22;13600;50.816;4.416;2023-09-12T12:51:47;36.40;62.30
25753;DHT22;13600;50.816;4.416;2023-09-12T12:54:14;35.70;63.70
25753;DHT22;13600;50.816;4.416;2023-09-12T12:56:40;35.10;65.80
25753;DHT22;13600;50.816;4.416;2023-09-12T12:59:08;34.60;66.00
25753;DHT22;13600;50.816;4.416;2023-09-12T13:01:35;34.20;66.40
25753;DHT22;13600;50.816;4.416;2023-09-12T13:04:01;33.70;69.00
25753;DHT22;13600;50.816;4.416;2023-09-12T13:06:27;33.10;70.70
25753;DHT22;13600;50.816;4.416;2023-09-12T13:08:57;33.00;72.10
25753;DHT22;13600;50.816;4.416;2023-09-12T13:11:27;32.70;72.90
25753;DHT22;13600;50.816;4.416;2023-09-12T13:13:53;32.60;73.80
25753;DHT22;13600;50.816;4.416;2023-09-12T13:16:19;32.60;73.70
25753;DHT22;13600;50.816;4.416;2023-09-12T13:18:44;32.30;74.20
25753;DHT22;13600;50.816;4.416;2023-09-12T13:21:10;32.20;74.70
25753;DHT22;13600;50.816;4.416;2023-09-12T13:23:37;31.80;76.00
25753;DHT22;13600;50.816;4.416;2023-09-12T13:26:04;31.60;77.60
25753;DHT22;13600;50.816;4.416;2023-09-12T13:28:30;31.50;78.00
25753;DHT22;13600;50.816;4.416;2023-09-12T13:30:56;31.30;79.40
25753;DHT22;13600;50.816;4.416;2023-09-12T13:33:25;31.00;80.60
25753;DHT22;13600;50.816;4.416;2023-09-12T13:35:51;30.90;80.70
25753;DHT22;13600;50.816;4.416;2023-09-12T13:38:17;30.80;81.70
25753;DHT22;13600;50.816;4.416;2023-09-12T13:40:45;30.80;82.40
25753;DHT22;13600;50.816;4.416;2023-09-12T13:43:11;30.60;82.70
25753;DHT22;13600;50.816;4.416;2023-09-12T13:45:38;30.50;83.60
25753;DHT22;13600;50.816;4.416;2023-09-12T13:48:04;30.50;82.90
25753;DHT22;13600;50.816;4.416;2023-09-12T13:50:30;30.50;83.70
25753;DHT22;13600;50.816;4.416;2023-09-12T13:53:02;30.50;84.00
25753;DHT22;13600;50.816;4.416;2023-09-12T13:55:34;30.60;83.60
25753;DHT22;13600;50.816;4.416;2023-09-12T13:58:03;30.50;83.90
25753;DHT22;13600;50.816;4.416;2023-09-12T14:00:30;30.50;84.10
25753;DHT22;13600;50.816;4.416;2023-09-12T14:02:56;30.40;84.60
25753;DHT22;13600;50.816;4.416;2023-09-12T14:05:22;30.30;84.10
25753;DHT22;13600;50.816;4.416;2023-09-12T14:07:48;30.10;85.60
25753;DHT22;13600;50.816;4.416;2023-09-12T14:10:15;29.90;86.00
25753;DHT22;13600;50.816;4.416;2023-09-12T14:12:42;29.90;86.40
25753;DHT22;13600;50.816;4.416;2023-09-12T14:15:10;29.80;87.00
25753;DHT22;13600;50.816;4.416;2023-09-12T14:17:37;29.80;87.60
25753;DHT22;13600;50.816;4.416;2023-09-12T14:20:03;29.50;87.20
25753;DHT22;13600;50.816;4.416;2023-09-12T14:22:30;29.30;89.00
25753;DHT22;13600;50.816;4.416;2023-09-12T14:24:56;29.20;90.30
25753;DHT22;13600;50.816;4.416;2023-09-12T14:27:21;29.10;90.80
25753;DHT22;13600;50.816;4.416;2023-09-12T14:29:47;29.10;90.80
25753;DHT22;13600;50.816;4.416;2023-09-12T14:32:15;29.10;91.30
25753;DHT22;13600;50.816;4.416;2023-09-12T14:34:40;29.10;91.00
25753;DHT22;13600;50.816;4.416;2023-09-12T14:37:06;29.20;91.30
25753;DHT22;13600;50.816;4.416;2023-09-12T14:39:32;29.20;91.50
25753;DHT22;13600;50.816;4.416;2023-09-12T14:41:58;29.30;91.50
25753;DHT22;13600;50.816;4.416;2023-09-12T14:44:26;29.30;91.40
25753;DHT22;13600;50.816;4.416;2023-09-12T14:46:53;29.30;91.30
25753;DHT22;13600;50.816;4.416;2023-09-12T14:49:20;29.20;91.80
25753;DHT22;13600;50.816;4.416;2023-09-12T14:51:46;29.20;92.00
25753;DHT22;13600;50.816;4.416;2023-09-12T14:54:12;29.20;92.20
25753;DHT22;13600;50.816;4.416;2023-09-12T14:56:38;29.00;92.60
25753;DHT22;13600;50.816;4.416;2023-09-12T14:59:04;28.90;93.20
25753;DHT22;13600;50.816;4.416;2023-09-12T15:01:31;28.90;93.60
25753;DHT22;13600;50.816;4.416;2023-09-12T15:03:56;28.80;93.90
25753;DHT22;13600;50.816;4.416;2023-09-12T15:06:22;28.70;94.10
25753;DHT22;13600;50.816;4.416;2023-09-12T15:08:51;28.70;94.50
25753;DHT22;13600;50.816;4.416;2023-09-12T15:11:18;28.60;94.50
25753;DHT22;13600;50.816;4.416;2023-09-12T15:13:43;28.50;94.70
25753;DHT22;13600;50.816;4.416;2023-09-12T15:16:11;28.50;95.10
25753;DHT22;13600;50.816;4.416;2023-09-12T15:18:37;28.50;95.80
25753;DHT22;13600;50.816;4.416;2023-09-12T15:21:04;28.50;95.90
25753;DHT22;13600;50.816;4.416;2023-09-12T15:23:30;28.50;96.30
25753;DHT22;13600;50.816;4.416;2023-09-12T15:25:56;28.40;96.30
25753;DHT22;13600;50.816;4.416;2023-09-12T15:28:21;28.30;96.50
25753;DHT22;13600;50.816;4.416;2023-09-12T15:30:47;28.30;96.90
25753;DHT22;13600;50.816;4.416;2023-09-12T15:33:19;28.20;97.40
25753;DHT22;13600;50.816;4.416;2023-09-12T15:35:45;28.10;97.60
25753;DHT22;13600;50.816;4.416;2023-09-12T15:38:10;27.90;98.10
25753;DHT22;13600;50.816;4.416;2023-09-12T15:40:36;27.80;98.10
25753;DHT22;13600;50.816;4.416;2023-09-12T15:43:02;27.70;98.60